Flight Track Log - Related Links

Times and Time Zones

All times are in EST time to prevent confusion due to time zone crossing. See the SKW7367 flight status page for this flight to view local times or setup timezone preferences in your user account.


Time Position Orientation Groundspeed Altitude Reporting Facility
EST Latitude Longitude Course Direction KTS MPH feet Rate Location/Type
Tue 03:58:01 PM 42.2106 -83.3650 North 154 177 1,200  Level Cleveland Center
Tue 04:00:10 PM 42.1156 -83.5036 227° Southwest 272 313 7,000 2,763 Climbing Cleveland Center
Tue 04:00:20 PM 42.1100 -83.5122 229° Southwest 268 308 7,600 1,667 Climbing Cleveland Center
Tue 04:01:00 PM 42.5827 -83.3790 North  Level Estimated
Tue 04:01:22 PM 42.1364 -83.5864 296° West 273 314 9,000  Level Cleveland Center
Tue 04:02:00 PM 42.6753 -83.3855 340° North  Level Estimated
Tue 04:02:13 PM 42.1917 -83.6553 317° Northwest 255 293 9,000  Level Cleveland Center
Tue 04:02:25 PM 42.2017 -83.6644 326° Northwest 260 299 9,000 1,770 Level Cleveland Center
Tue 04:03:00 PM 42.7679 -83.3920 North  Level Estimated
Tue 04:03:14 PM 42.2622 -83.6628 North 270 311 10,800  Level Cleveland Center
Tue 04:03:27 PM 42.2772 -83.6583 12° North 269 310 11,100 1,200 Climbing Cleveland Center
Tue 04:04:29 PM 42.3681 -83.6364 10° North 330 380 12,300 1,161 Climbing Cleveland Center
Tue 04:05:31 PM 42.4611 -83.5900 20° North 352 405 13,500 1,113 Climbing Cleveland Center
Tue 04:06:33 PM 42.5522 -83.5453 20° North 348 400 14,600 726 Climbing Cleveland Center
Tue 04:07:35 PM 42.6500 -83.4969 20° North 363 418 15,000 194 Climbing Cleveland Center
Tue 04:08:37 PM 42.7511 -83.4458 20° North 382 440 15,000  Level Cleveland Center
Tue 04:09:39 PM 42.8506 -83.3964 20° North 383 441 15,000  Level Cleveland Center
Tue 04:10:41 PM 42.9731 -83.3644 11° North 380 437 15,000  Level Cleveland Center
Tue 04:11:43 PM 43.0747 -83.3725 357° North 371 427 15,000  Level Cleveland Center
Tue 04:12:45 PM 43.1447 -83.4719 314° West 366 421 15,000  Level Cleveland Center
Tue 04:13:47 PM 43.2161 -83.5694 315° West 362 417 15,000  Level Cleveland Center
Tue 04:14:50 PM 43.3186 -83.5847 354° North 372 428 15,000  Level Cleveland Center
Tue 04:15:52 PM 43.4417 -83.5828 North 370 426 15,000  Level Cleveland Center
Tue 04:16:54 PM 43.5456 -83.5800 North 373 429 15,000  Level Cleveland Center
Tue 04:17:56 PM 43.6486 -83.5792 360° North 371 427 15,000  Level Cleveland Center
Tue 04:18:59 PM 43.7561 -83.5769 North 373 429 15,000  Level Minneapolis Center
Tue 04:20:01 PM 43.8586 -83.5756 North 371 427 15,000  Level Minneapolis Center
Tue 04:21:03 PM 43.9725 -83.5736 North 373 429 15,000 -97 Level Minneapolis Center
Tue 04:22:05 PM 44.0811 -83.5728 360° North 366 421 14,800 -581 Descending Minneapolis Center
Tue 04:23:07 PM 44.1797 -83.5694 North 361 415 13,800 -1,113 Descending Minneapolis Center
Tue 04:24:09 PM 44.2817 -83.5694 360° North 345 397 12,500 -1,113 Descending Minneapolis Center
Tue 04:25:11 PM 44.3625 -83.5692 360° North 293 337 11,500 -1,258 Descending Minneapolis Center
Tue 04:26:13 PM 44.4386 -83.5683 360° North 259 298 9,900 -1,403 Descending Minneapolis Center
Tue 04:27:15 PM 44.5111 -83.5664 North 262 302 8,600 -1,306 Descending Minneapolis Center
Tue 04:28:17 PM 44.5883 -83.5653 North 260 299 7,200 -1,258 Descending Minneapolis Center
Tue 04:29:19 PM 44.6650 -83.5631 North 258 297 6,000 -1,065 Descending Minneapolis Center
Tue 04:30:21 PM 44.7369 -83.5625 360° North 261 300 5,000 -1,016 Descending Minneapolis Center
Tue 04:31:23 PM 44.8103 -83.5614 North 252 290 3,900 -774 Descending Minneapolis Center
Tue 04:32:25 PM 44.8683 -83.5606 North 217 250 3,400 -532 Descending Minneapolis Center
Tue 04:33:27 PM 44.9275 -83.5597 North 202 232 2,800 -339 Descending Minneapolis Center
Tue 04:34:29 PM 44.9783 -83.5608 359° North 191 220 2,700 -484 Descending Minneapolis Center
Tue 04:35:31 PM 45.0175 -83.5608 360° North 138 159 1,800 -823 Descending Minneapolis Center
Tue 04:36:33 PM 45.0542 -83.5611 360° North 134 154 1,000 -532 Descending Minneapolis Center
Tue 04:37:35 PM 45.0878 -83.5606 North 132 152 700 -290 Descending Minneapolis Center

Login

Don't have an account? Register now (free) for customized features, flight alerts, and more!